RORA(METAR)
03/25 17:00
RORA 250800Z 13011KT 9999 FEW028 SCT036 22/17 Q1016 RMK A3003=
戻る
トップページへ戻る
IMOC Co,.Ltd.